sensor_id;sensor_type;location;lat;lon;timestamp;P1;durP1;ratioP1;P2;durP2;ratioP2
14013;SDS011;49110;52.584;13.408;2023-06-24T00:00:23;9.70;;;8.80;;
14013;SDS011;49110;52.584;13.408;2023-06-24T00:01:24;9.53;;;8.53;;
14013;SDS011;49110;52.584;13.408;2023-06-24T00:02:25;11.20;;;8.30;;
14013;SDS011;49110;52.584;13.408;2023-06-24T00:03:26;9.23;;;8.23;;
14013;SDS011;49110;52.584;13.408;2023-06-24T00:04:26;11.37;;;9.27;;
14013;SDS011;49110;52.584;13.408;2023-06-24T00:05:27;9.20;;;8.30;;
14013;SDS011;49110;52.584;13.408;2023-06-24T00:06:27;9.30;;;8.33;;
14013;SDS011;49110;52.584;13.408;2023-06-24T00:07:27;12.63;;;8.70;;
14013;SDS011;49110;52.584;13.408;2023-06-24T00:08:28;10.53;;;9.43;;
14013;SDS011;49110;52.584;13.408;2023-06-24T00:09:34;11.20;;;8.60;;
14013;SDS011;49110;52.584;13.408;2023-06-24T00:10:34;10.30;;;8.70;;
14013;SDS011;49110;52.584;13.408;2023-06-24T00:11:35;11.30;;;8.90;;
14013;SDS011;49110;52.584;13.408;2023-06-24T00:12:36;11.83;;;8.33;;
14013;SDS011;49110;52.584;13.408;2023-06-24T00:13:39;11.63;;;8.80;;
14013;SDS011;49110;52.584;13.408;2023-06-24T00:14:40;9.53;;;8.57;;
14013;SDS011;49110;52.584;13.408;2023-06-24T00:15:40;10.30;;;9.20;;
14013;SDS011;49110;52.584;13.408;2023-06-24T00:16:44;10.83;;;9.17;;
14013;SDS011;49110;52.584;13.408;2023-06-24T00:17:46;10.67;;;8.77;;
14013;SDS011;49110;52.584;13.408;2023-06-24T00:18:46;10.60;;;9.30;;
14013;SDS011;49110;52.584;13.408;2023-06-24T00:19:47;11.80;;;9.50;;
14013;SDS011;49110;52.584;13.408;2023-06-24T00:20:47;10.40;;;9.13;;
14013;SDS011;49110;52.584;13.408;2023-06-24T00:21:49;9.87;;;8.77;;
14013;SDS011;49110;52.584;13.408;2023-06-24T00:22:53;9.30;;;8.40;;
14013;SDS011;49110;52.584;13.408;2023-06-24T00:23:53;10.23;;;9.23;;
14013;SDS011;49110;52.584;13.408;2023-06-24T00:24:53;9.43;;;8.63;;
14013;SDS011;49110;52.584;13.408;2023-06-24T00:25:54;11.13;;;8.80;;
14013;SDS011;49110;52.584;13.408;2023-06-24T00:26:55;9.80;;;8.97;;
14013;SDS011;49110;52.584;13.408;2023-06-24T00:27:56;12.13;;;9.37;;
14013;SDS011;49110;52.584;13.408;2023-06-24T00:28:57;12.73;;;8.77;;
14013;SDS011;49110;52.584;13.408;2023-06-24T00:29:58;10.73;;;9.63;;
14013;SDS011;49110;52.584;13.408;2023-06-24T00:30:59;10.73;;;9.37;;
14013;SDS011;49110;52.584;13.408;2023-06-24T00:31:59;10.63;;;9.63;;
14013;SDS011;49110;52.584;13.408;2023-06-24T00:33:00;10.43;;;9.53;;
14013;SDS011;49110;52.584;13.408;2023-06-24T00:34:02;11.20;;;9.43;;
14013;SDS011;49110;52.584;13.408;2023-06-24T00:35:03;11.13;;;10.00;;
14013;SDS011;49110;52.584;13.408;2023-06-24T00:36:03;10.80;;;9.70;;
14013;SDS011;49110;52.584;13.408;2023-06-24T00:37:06;12.20;;;9.83;;
14013;SDS011;49110;52.584;13.408;2023-06-24T00:38:06;10.53;;;9.53;;
14013;SDS011;49110;52.584;13.408;2023-06-24T00:39:07;12.80;;;10.33;;
14013;SDS011;49110;52.584;13.408;2023-06-24T00:40:08;11.97;;;9.57;;
14013;SDS011;49110;52.584;13.408;2023-06-24T00:41:10;10.57;;;9.47;;
14013;SDS011;49110;52.584;13.408;2023-06-24T00:42:11;12.30;;;10.07;;
14013;SDS011;49110;52.584;13.408;2023-06-24T00:43:11;14.07;;;9.60;;
14013;SDS011;49110;52.584;13.408;2023-06-24T00:44:12;10.53;;;9.53;;
14013;SDS011;49110;52.584;13.408;2023-06-24T00:45:13;10.93;;;9.83;;
14013;SDS011;49110;52.584;13.408;2023-06-24T00:46:14;12.27;;;10.93;;
14013;SDS011;49110;52.584;13.408;2023-06-24T00:47:15;11.33;;;10.27;;
14013;SDS011;49110;52.584;13.408;2023-06-24T00:48:15;12.83;;;9.83;;
14013;SDS011;49110;52.584;13.408;2023-06-24T00:49:16;11.20;;;9.83;;
14013;SDS011;49110;52.584;13.408;2023-06-24T00:50:17;11.10;;;9.90;;
14013;SDS011;49110;52.584;13.408;2023-06-24T00:51:18;12.33;;;9.80;;
14013;SDS011;49110;52.584;13.408;2023-06-24T00:52:21;13.40;;;10.80;;
14013;SDS011;49110;52.584;13.408;2023-06-24T00:53:21;11.50;;;10.33;;
14013;SDS011;49110;52.584;13.408;2023-06-24T00:54:24;12.07;;;10.93;;
14013;SDS011;49110;52.584;13.408;2023-06-24T00:55:30;12.37;;;9.67;;
14013;SDS011;49110;52.584;13.408;2023-06-24T00:56:33;11.67;;;10.03;;
14013;SDS011;49110;52.584;13.408;2023-06-24T00:57:38;12.00;;;10.63;;
14013;SDS011;49110;52.584;13.408;2023-06-24T00:58:41;10.87;;;9.77;;
14013;SDS011;49110;52.584;13.408;2023-06-24T00:59:42;13.60;;;10.43;;
14013;SDS011;49110;52.584;13.408;2023-06-24T01:00:44;13.33;;;10.53;;
14013;SDS011;49110;52.584;13.408;2023-06-24T01:01:45;13.20;;;10.47;;
14013;SDS011;49110;52.584;13.408;2023-06-24T01:02:46;11.10;;;9.90;;
14013;SDS011;49110;52.584;13.408;2023-06-24T01:03:48;12.03;;;10.33;;
14013;SDS011;49110;52.584;13.408;2023-06-24T01:04:48;12.57;;;10.63;;
14013;SDS011;49110;52.584;13.408;2023-06-24T01:05:51;13.80;;;12.50;;
14013;SDS011;49110;52.584;13.408;2023-06-24T01:06:54;13.90;;;11.13;;
14013;SDS011;49110;52.584;13.408;2023-06-24T01:07:56;14.07;;;10.97;;
14013;SDS011;49110;52.584;13.408;2023-06-24T01:08:58;16.63;;;11.57;;
14013;SDS011;49110;52.584;13.408;2023-06-24T01:10:00;13.70;;;11.63;;
14013;SDS011;49110;52.584;13.408;2023-06-24T01:11:01;12.90;;;11.47;;
14013;SDS011;49110;52.584;13.408;2023-06-24T01:12:01;12.13;;;10.83;;
14013;SDS011;49110;52.584;13.408;2023-06-24T01:13:02;14.60;;;11.60;;
14013;SDS011;49110;52.584;13.408;2023-06-24T01:14:02;14.60;;;11.07;;
14013;SDS011;49110;52.584;13.408;2023-06-24T01:15:03;12.63;;;11.33;;
14013;SDS011;49110;52.584;13.408;2023-06-24T01:16:06;12.73;;;11.00;;
14013;SDS011;49110;52.584;13.408;2023-06-24T01:17:17;14.20;;;11.43;;
14013;SDS011;49110;52.584;13.408;2023-06-24T01:20:58;16.53;;;11.57;;
14013;SDS011;49110;52.584;13.408;2023-06-24T01:22:09;12.67;;;11.27;;
14013;SDS011;49110;52.584;13.408;2023-06-24T01:23:30;12.63;;;11.37;;
14013;SDS011;49110;52.584;13.408;2023-06-24T01:26:05;13.03;;;11.70;;
14013;SDS011;49110;52.584;13.408;2023-06-24T01:29:01;13.27;;;11.87;;
14013;SDS011;49110;52.584;13.408;2023-06-24T01:30:27;13.33;;;11.30;;
14013;SDS011;49110;52.584;13.408;2023-06-24T01:31:59;13.27;;;11.67;;
14013;SDS011;49110;52.584;13.408;2023-06-24T01:33:07;14.00;;;11.20;;
14013;SDS011;49110;52.584;13.408;2023-06-24T01:34:15;12.77;;;10.83;;
14013;SDS011;49110;52.584;13.408;2023-06-24T01:35:32;15.67;;;12.07;;
14013;SDS011;49110;52.584;13.408;2023-06-24T01:36:36;12.43;;;11.23;;
14013;SDS011;49110;52.584;13.408;2023-06-24T01:37:41;14.77;;;11.13;;
14013;SDS011;49110;52.584;13.408;2023-06-24T01:38:49;14.87;;;12.43;;
14013;SDS011;49110;52.584;13.408;2023-06-24T01:40:59;12.77;;;11.00;;
14013;SDS011;49110;52.584;13.408;2023-06-24T01:42:06;12.60;;;11.30;;
14013;SDS011;49110;52.584;13.408;2023-06-24T01:43:10;12.90;;;11.60;;
14013;SDS011;49110;52.584;13.408;2023-06-24T01:44:13;15.20;;;11.60;;
14013;SDS011;49110;52.584;13.408;2023-06-24T01:45:22;16.83;;;11.10;;
14013;SDS011;49110;52.584;13.408;2023-06-24T01:46:25;12.47;;;11.07;;
14013;SDS011;49110;52.584;13.408;2023-06-24T01:47:29;12.90;;;11.60;;
14013;SDS011;49110;52.584;13.408;2023-06-24T01:48:32;13.10;;;11.90;;
14013;SDS011;49110;52.584;13.408;2023-06-24T01:49:37;12.33;;;11.03;;
14013;SDS011;49110;52.584;13.408;2023-06-24T01:50:48;12.63;;;11.33;;
14013;SDS011;49110;52.584;13.408;2023-06-24T01:52:00;15.67;;;11.37;;
14013;SDS011;49110;52.584;13.408;2023-06-24T01:53:04;14.13;;;11.40;;
14013;SDS011;49110;52.584;13.408;2023-06-24T01:54:09;15.50;;;12.27;;
14013;SDS011;49110;52.584;13.408;2023-06-24T01:55:14;12.73;;;10.77;;
14013;SDS011;49110;52.584;13.408;2023-06-24T01:56:18;14.00;;;11.80;;
14013;SDS011;49110;52.584;13.408;2023-06-24T01:57:21;13.47;;;10.90;;
14013;SDS011;49110;52.584;13.408;2023-06-24T01:58:23;13.80;;;11.40;;
14013;SDS011;49110;52.584;13.408;2023-06-24T01:59:24;14.93;;;10.83;;
14013;SDS011;49110;52.584;13.408;2023-06-24T02:00:25;18.30;;;11.00;;
14013;SDS011;49110;52.584;13.408;2023-06-24T02:01:26;14.63;;;11.37;;
14013;SDS011;49110;52.584;13.408;2023-06-24T02:02:28;12.40;;;11.20;;
14013;SDS011;49110;52.584;13.408;2023-06-24T02:03:31;13.60;;;10.67;;
14013;SDS011;49110;52.584;13.408;2023-06-24T02:04:33;13.77;;;10.77;;
14013;SDS011;49110;52.584;13.408;2023-06-24T02:05:35;14.10;;;11.13;;
14013;SDS011;49110;52.584;13.408;2023-06-24T02:06:39;13.23;;;10.70;;
14013;SDS011;49110;52.584;13.408;2023-06-24T02:07:42;11.83;;;10.60;;
14013;SDS011;49110;52.584;13.408;2023-06-24T02:08:43;11.77;;;10.40;;
14013;SDS011;49110;52.584;13.408;2023-06-24T02:09:47;12.37;;;11.07;;
14013;SDS011;49110;52.584;13.408;2023-06-24T02:10:50;11.33;;;9.87;;
14013;SDS011;49110;52.584;13.408;2023-06-24T02:11:51;11.90;;;10.70;;
14013;SDS011;49110;52.584;13.408;2023-06-24T02:12:53;12.20;;;10.00;;
14013;SDS011;49110;52.584;13.408;2023-06-24T02:13:55;15.73;;;10.93;;
14013;SDS011;49110;52.584;13.408;2023-06-24T02:14:56;11.33;;;10.17;;
14013;SDS011;49110;52.584;13.408;2023-06-24T02:15:59;13.17;;;11.03;;
14013;SDS011;49110;52.584;13.408;2023-06-24T02:17:03;14.03;;;10.70;;
14013;SDS011;49110;52.584;13.408;2023-06-24T02:18:06;12.30;;;11.10;;
14013;SDS011;49110;52.584;13.408;2023-06-24T02:19:09;11.50;;;10.47;;
14013;SDS011;49110;52.584;13.408;2023-06-24T02:20:11;13.20;;;10.57;;
14013;SDS011;49110;52.584;13.408;2023-06-24T02:21:12;12.70;;;10.53;;
14013;SDS011;49110;52.584;13.408;2023-06-24T02:22:15;11.17;;;10.07;;
14013;SDS011;49110;52.584;13.408;2023-06-24T02:23:18;12.73;;;10.47;;
14013;SDS011;49110;52.584;13.408;2023-06-24T02:24:21;12.50;;;10.77;;
14013;SDS011;49110;52.584;13.408;2023-06-24T02:25:22;12.53;;;10.77;;
14013;SDS011;49110;52.584;13.408;2023-06-24T02:26:24;11.97;;;10.67;;
14013;SDS011;49110;52.584;13.408;2023-06-24T02:27:25;12.23;;;10.97;;
14013;SDS011;49110;52.584;13.408;2023-06-24T02:28:27;11.67;;;10.47;;
14013;SDS011;49110;52.584;13.408;2023-06-24T02:29:29;11.77;;;10.40;;
14013;SDS011;49110;52.584;13.408;2023-06-24T02:30:30;11.50;;;10.40;;
14013;SDS011;49110;52.584;13.408;2023-06-24T02:31:32;11.57;;;10.20;;
14013;SDS011;49110;52.584;13.408;2023-06-24T02:32:32;11.90;;;10.43;;
14013;SDS011;49110;52.584;13.408;2023-06-24T02:33:35;14.63;;;10.53;;
14013;SDS011;49110;52.584;13.408;2023-06-24T02:34:36;10.93;;;9.67;;
14013;SDS011;49110;52.584;13.408;2023-06-24T02:35:40;13.80;;;10.60;;
14013;SDS011;49110;52.584;13.408;2023-06-24T02:36:41;11.47;;;10.13;;
14013;SDS011;49110;52.584;13.408;2023-06-24T02:37:42;13.33;;;10.53;;
14013;SDS011;49110;52.584;13.408;2023-06-24T02:38:43;13.97;;;10.57;;
14013;SDS011;49110;52.584;13.408;2023-06-24T02:39:44;14.63;;;10.37;;
14013;SDS011;49110;52.584;13.408;2023-06-24T02:40:45;13.27;;;10.10;;
14013;SDS011;49110;52.584;13.408;2023-06-24T02:41:46;20.53;;;10.13;;
14013;SDS011;49110;52.584;13.408;2023-06-24T02:42:47;11.57;;;9.90;;
14013;SDS011;49110;52.584;13.408;2023-06-24T02:43:48;11.20;;;10.10;;
14013;SDS011;49110;52.584;13.408;2023-06-24T02:44:48;14.53;;;10.27;;
14013;SDS011;49110;52.584;13.408;2023-06-24T02:45:49;10.93;;;9.83;;
14013;SDS011;49110;52.584;13.408;2023-06-24T02:46:50;11.37;;;10.17;;
14013;SDS011;49110;52.584;13.408;2023-06-24T02:47:53;12.23;;;9.87;;
14013;SDS011;49110;52.584;13.408;2023-06-24T02:48:55;12.20;;;9.93;;
14013;SDS011;49110;52.584;13.408;2023-06-24T02:49:57;11.97;;;10.13;;
14013;SDS011;49110;52.584;13.408;2023-06-24T02:50:59;11.57;;;10.47;;
14013;SDS011;49110;52.584;13.408;2023-06-24T02:52:00;11.00;;;9.90;;
14013;SDS011;49110;52.584;13.408;2023-06-24T02:53:01;10.87;;;9.77;;
14013;SDS011;49110;52.584;13.408;2023-06-24T02:54:02;11.63;;;10.03;;
14013;SDS011;49110;52.584;13.408;2023-06-24T02:55:03;10.73;;;9.63;;
14013;SDS011;49110;52.584;13.408;2023-06-24T02:56:05;11.90;;;9.73;;
14013;SDS011;49110;52.584;13.408;2023-06-24T02:57:08;10.57;;;9.47;;
14013;SDS011;49110;52.584;13.408;2023-06-24T02:58:09;10.50;;;9.43;;
14013;SDS011;49110;52.584;13.408;2023-06-24T02:59:10;11.47;;;9.77;;
14013;SDS011;49110;52.584;13.408;2023-06-24T03:00:11;11.70;;;9.43;;
14013;SDS011;49110;52.584;13.408;2023-06-24T03:01:13;11.27;;;9.33;;
14013;SDS011;49110;52.584;13.408;2023-06-24T03:02:14;13.87;;;9.80;;
14013;SDS011;49110;52.584;13.408;2023-06-24T03:03:16;11.17;;;9.77;;
14013;SDS011;49110;52.584;13.408;2023-06-24T03:04:18;11.10;;;10.10;;
14013;SDS011;49110;52.584;13.408;2023-06-24T03:05:19;10.00;;;9.00;;
14013;SDS011;49110;52.584;13.408;2023-06-24T03:06:22;10.20;;;9.13;;
14013;SDS011;49110;52.584;13.408;2023-06-24T03:07:24;10.37;;;9.37;;
14013;SDS011;49110;52.584;13.408;2023-06-24T03:08:25;10.13;;;9.13;;
14013;SDS011;49110;52.584;13.408;2023-06-24T03:09:27;10.20;;;9.20;;
14013;SDS011;49110;52.584;13.408;2023-06-24T03:10:27;10.60;;;9.50;;
14013;SDS011;49110;52.584;13.408;2023-06-24T03:11:28;12.20;;;9.33;;
14013;SDS011;49110;52.584;13.408;2023-06-24T03:12:28;11.53;;;9.53;;
14013;SDS011;49110;52.584;13.408;2023-06-24T03:13:29;10.13;;;9.13;;
14013;SDS011;49110;52.584;13.408;2023-06-24T03:14:29;13.33;;;9.77;;
14013;SDS011;49110;52.584;13.408;2023-06-24T03:15:30;10.83;;;9.70;;
14013;SDS011;49110;52.584;13.408;2023-06-24T03:16:31;11.73;;;9.83;;
14013;SDS011;49110;52.584;13.408;2023-06-24T03:17:32;10.60;;;9.47;;
14013;SDS011;49110;52.584;13.408;2023-06-24T03:18:32;11.13;;;9.97;;
14013;SDS011;49110;52.584;13.408;2023-06-24T03:19:33;10.27;;;9.17;;
14013;SDS011;49110;52.584;13.408;2023-06-24T03:20:33;12.73;;;9.37;;
14013;SDS011;49110;52.584;13.408;2023-06-24T03:21:38;11.20;;;9.17;;
14013;SDS011;49110;52.584;13.408;2023-06-24T03:22:39;11.30;;;9.90;;
14013;SDS011;49110;52.584;13.408;2023-06-24T03:23:39;10.83;;;9.73;;
14013;SDS011;49110;52.584;13.408;2023-06-24T03:24:40;9.77;;;8.77;;
14013;SDS011;49110;52.584;13.408;2023-06-24T03:25:40;11.07;;;9.93;;
14013;SDS011;49110;52.584;13.408;2023-06-24T03:26:41;10.57;;;9.07;;
14013;SDS011;49110;52.584;13.408;2023-06-24T03:27:41;10.80;;;9.67;;
14013;SDS011;49110;52.584;13.408;2023-06-24T03:28:42;11.13;;;9.63;;
14013;SDS011;49110;52.584;13.408;2023-06-24T03:29:42;10.77;;;9.67;;
14013;SDS011;49110;52.584;13.408;2023-06-24T03:30:43;10.77;;;9.70;;
14013;SDS011;49110;52.584;13.408;2023-06-24T03:31:43;11.10;;;9.53;;
14013;SDS011;49110;52.584;13.408;2023-06-24T03:32:45;10.20;;;9.20;;
14013;SDS011;49110;52.584;13.408;2023-06-24T03:33:46;12.63;;;9.73;;
14013;SDS011;49110;52.584;13.408;2023-06-24T03:34:47;13.17;;;9.10;;
14013;SDS011;49110;52.584;13.408;2023-06-24T03:35:47;10.63;;;9.63;;
14013;SDS011;49110;52.584;13.408;2023-06-24T03:36:48;10.90;;;9.80;;
14013;SDS011;49110;52.584;13.408;2023-06-24T03:37:49;10.30;;;9.20;;
14013;SDS011;49110;52.584;13.408;2023-06-24T03:38:49;12.53;;;9.20;;
14013;SDS011;49110;52.584;13.408;2023-06-24T03:39:50;10.53;;;9.40;;
14013;SDS011;49110;52.584;13.408;2023-06-24T03:40:51;12.27;;;8.97;;
14013;SDS011;49110;52.584;13.408;2023-06-24T03:41:51;8.97;;;8.10;;
14013;SDS011;49110;52.584;13.408;2023-06-24T03:42:52;11.97;;;9.23;;
14013;SDS011;49110;52.584;13.408;2023-06-24T03:43:52;10.73;;;9.00;;
14013;SDS011;49110;52.584;13.408;2023-06-24T03:44:53;10.20;;;9.03;;
14013;SDS011;49110;52.584;13.408;2023-06-24T03:45:53;12.33;;;9.90;;
14013;SDS011;49110;52.584;13.408;2023-06-24T03:46:55;10.80;;;9.77;;
14013;SDS011;49110;52.584;13.408;2023-06-24T03:47:55;11.10;;;9.10;;
14013;SDS011;49110;52.584;13.408;2023-06-24T03:48:56;9.77;;;8.77;;
14013;SDS011;49110;52.584;13.408;2023-06-24T03:49:56;10.80;;;9.30;;
14013;SDS011;49110;52.584;13.408;2023-06-24T03:50:56;10.60;;;9.17;;
14013;SDS011;49110;52.584;13.408;2023-06-24T03:51:57;9.97;;;8.93;;
14013;SDS011;49110;52.584;13.408;2023-06-24T03:52:57;13.77;;;9.73;;
14013;SDS011;49110;52.584;13.408;2023-06-24T03:53:58;12.57;;;9.17;;
14013;SDS011;49110;52.584;13.408;2023-06-24T03:54:58;9.70;;;8.70;;
14013;SDS011;49110;52.584;13.408;2023-06-24T03:56:01;10.27;;;9.27;;
14013;SDS011;49110;52.584;13.408;2023-06-24T03:57:02;10.60;;;8.70;;
14013;SDS011;49110;52.584;13.408;2023-06-24T03:58:02;9.97;;;8.40;;
14013;SDS011;49110;52.584;13.408;2023-06-24T03:59:03;11.87;;;8.73;;
14013;SDS011;49110;52.584;13.408;2023-06-24T04:00:03;10.10;;;9.03;;
14013;SDS011;49110;52.584;13.408;2023-06-24T04:01:16;11.30;;;9.50;;
14013;SDS011;49110;52.584;13.408;2023-06-24T04:02:19;11.70;;;9.67;;
14013;SDS011;49110;52.584;13.408;2023-06-24T04:03:20;10.60;;;9.50;;
14013;SDS011;49110;52.584;13.408;2023-06-24T04:04:20;12.33;;;9.50;;
14013;SDS011;49110;52.584;13.408;2023-06-24T04:05:22;10.17;;;9.10;;
14013;SDS011;49110;52.584;13.408;2023-06-24T04:06:22;11.13;;;9.23;;
14013;SDS011;49110;52.584;13.408;2023-06-24T04:07:23;10.30;;;9.23;;
14013;SDS011;49110;52.584;13.408;2023-06-24T04:08:29;13.80;;;9.40;;
14013;SDS011;49110;52.584;13.408;2023-06-24T04:09:33;11.83;;;9.00;;
14013;SDS011;49110;52.584;13.408;2023-06-24T04:10:34;11.17;;;9.63;;
14013;SDS011;49110;52.584;13.408;2023-06-24T04:11:34;12.07;;;9.60;;
14013;SDS011;49110;52.584;13.408;2023-06-24T04:12:35;10.10;;;9.10;;
14013;SDS011;49110;52.584;13.408;2023-06-24T04:13:35;14.10;;;9.80;;
14013;SDS011;49110;52.584;13.408;2023-06-24T04:14:36;12.37;;;8.87;;
14013;SDS011;49110;52.584;13.408;2023-06-24T04:15:36;10.90;;;9.20;;
14013;SDS011;49110;52.584;13.408;2023-06-24T04:16:37;13.10;;;8.43;;
14013;SDS011;49110;52.584;13.408;2023-06-24T04:17:37;13.57;;;12.47;;
14013;SDS011;49110;52.584;13.408;2023-06-24T04:18:38;12.70;;;8.73;;
14013;SDS011;49110;52.584;13.408;2023-06-24T04:19:39;10.70;;;8.80;;
14013;SDS011;49110;52.584;13.408;2023-06-24T04:20:40;10.40;;;9.30;;
14013;SDS011;49110;52.584;13.408;2023-06-24T04:21:41;11.80;;;8.77;;
14013;SDS011;49110;52.584;13.408;2023-06-24T04:22:41;12.37;;;9.23;;
14013;SDS011;49110;52.584;13.408;2023-06-24T04:23:42;9.97;;;8.97;;
14013;SDS011;49110;52.584;13.408;2023-06-24T04:24:43;12.77;;;9.40;;
14013;SDS011;49110;52.584;13.408;2023-06-24T04:25:43;9.13;;;8.23;;
14013;SDS011;49110;52.584;13.408;2023-06-24T04:26:43;12.47;;;9.63;;
14013;SDS011;49110;52.584;13.408;2023-06-24T04:27:44;10.87;;;9.23;;
14013;SDS011;49110;52.584;13.408;2023-06-24T04:28:44;13.00;;;10.20;;
14013;SDS011;49110;52.584;13.408;2023-06-24T04:29:45;10.00;;;8.63;;
14013;SDS011;49110;52.584;13.408;2023-06-24T04:30:45;11.37;;;9.37;;
14013;SDS011;49110;52.584;13.408;2023-06-24T04:31:46;11.13;;;9.37;;
14013;SDS011;49110;52.584;13.408;2023-06-24T04:32:46;11.60;;;9.50;;
14013;SDS011;49110;52.584;13.408;2023-06-24T04:33:47;11.07;;;9.67;;
14013;SDS011;49110;52.584;13.408;2023-06-24T04:34:47;11.97;;;9.53;;
14013;SDS011;49110;52.584;13.408;2023-06-24T04:35:47;11.07;;;9.07;;
14013;SDS011;49110;52.584;13.408;2023-06-24T04:36:48;12.67;;;9.80;;
14013;SDS011;49110;52.584;13.408;2023-06-24T04:37:48;10.97;;;9.80;;
14013;SDS011;49110;52.584;13.408;2023-06-24T04:38:50;12.43;;;10.17;;
14013;SDS011;49110;52.584;13.408;2023-06-24T04:39:50;11.50;;;9.70;;
14013;SDS011;49110;52.584;13.408;2023-06-24T04:40:51;11.10;;;9.60;;
14013;SDS011;49110;52.584;13.408;2023-06-24T04:41:51;10.57;;;9.40;;
14013;SDS011;49110;52.584;13.408;2023-06-24T04:42:52;10.37;;;9.30;;
14013;SDS011;49110;52.584;13.408;2023-06-24T04:43:52;10.07;;;9.03;;
14013;SDS011;49110;52.584;13.408;2023-06-24T04:44:53;11.27;;;9.40;;
14013;SDS011;49110;52.584;13.408;2023-06-24T04:45:54;12.37;;;9.93;;
14013;SDS011;49110;52.584;13.408;2023-06-24T04:46:57;10.80;;;9.70;;
14013;SDS011;49110;52.584;13.408;2023-06-24T04:47:58;13.30;;;12.07;;
14013;SDS011;49110;52.584;13.408;2023-06-24T04:48:58;10.63;;;9.60;;
14013;SDS011;49110;52.584;13.408;2023-06-24T04:49:58;16.97;;;15.47;;
14013;SDS011;49110;52.584;13.408;2023-06-24T04:50:59;13.53;;;9.80;;
14013;SDS011;49110;52.584;13.408;2023-06-24T04:52:00;11.60;;;9.57;;
14013;SDS011;49110;52.584;13.408;2023-06-24T04:53:01;10.40;;;9.30;;
14013;SDS011;49110;52.584;13.408;2023-06-24T04:54:01;12.20;;;9.60;;
14013;SDS011;49110;52.584;13.408;2023-06-24T04:55:03;10.77;;;9.67;;
14013;SDS011;49110;52.584;13.408;2023-06-24T04:56:04;11.73;;;9.27;;
14013;SDS011;49110;52.584;13.408;2023-06-24T04:57:06;10.43;;;9.33;;
14013;SDS011;49110;52.584;13.408;2023-06-24T04:58:08;13.30;;;9.67;;
14013;SDS011;49110;52.584;13.408;2023-06-24T04:59:09;14.83;;;9.33;;
14013;SDS011;49110;52.584;13.408;2023-06-24T05:00:09;11.00;;;9.43;;
14013;SDS011;49110;52.584;13.408;2023-06-24T05:01:11;12.07;;;9.30;;
14013;SDS011;49110;52.584;13.408;2023-06-24T05:02:11;11.27;;;9.73;;
14013;SDS011;49110;52.584;13.408;2023-06-24T05:03:12;12.00;;;9.07;;
14013;SDS011;49110;52.584;13.408;2023-06-24T05:04:12;11.73;;;9.50;;
14013;SDS011;49110;52.584;13.408;2023-06-24T05:05:13;11.17;;;9.10;;
14013;SDS011;49110;52.584;13.408;2023-06-24T05:06:13;12.27;;;9.40;;
14013;SDS011;49110;52.584;13.408;2023-06-24T05:07:14;14.03;;;9.00;;
14013;SDS011;49110;52.584;13.408;2023-06-24T05:08:15;12.17;;;9.30;;
14013;SDS011;49110;52.584;13.408;2023-06-24T05:09:15;11.07;;;9.53;;
14013;SDS011;49110;52.584;13.408;2023-06-24T05:10:16;10.27;;;9.20;;
14013;SDS011;49110;52.584;13.408;2023-06-24T05:11:16;11.50;;;8.97;;
14013;SDS011;49110;52.584;13.408;2023-06-24T05:12:17;13.37;;;9.27;;
14013;SDS011;49110;52.584;13.408;2023-06-24T05:13:17;11.43;;;9.43;;
14013;SDS011;49110;52.584;13.408;2023-06-24T05:14:18;10.00;;;8.83;;
14013;SDS011;49110;52.584;13.408;2023-06-24T05:15:18;11.47;;;8.90;;
14013;SDS011;49110;52.584;13.408;2023-06-24T05:16:19;14.57;;;9.37;;
14013;SDS011;49110;52.584;13.408;2023-06-24T05:17:20;11.80;;;9.20;;
14013;SDS011;49110;52.584;13.408;2023-06-24T05:18:20;11.67;;;9.27;;
14013;SDS011;49110;52.584;13.408;2023-06-24T05:19:21;12.77;;;9.40;;
14013;SDS011;49110;52.584;13.408;2023-06-24T05:20:21;13.23;;;8.63;;
14013;SDS011;49110;52.584;13.408;2023-06-24T05:21:22;11.00;;;8.80;;
14013;SDS011;49110;52.584;13.408;2023-06-24T05:22:22;12.73;;;8.57;;
14013;SDS011;49110;52.584;13.408;2023-06-24T05:23:23;10.83;;;8.63;;
14013;SDS011;49110;52.584;13.408;2023-06-24T05:24:23;9.40;;;7.97;;
14013;SDS011;49110;52.584;13.408;2023-06-24T05:25:24;13.20;;;9.10;;
14013;SDS011;49110;52.584;13.408;2023-06-24T05:26:24;8.60;;;7.80;;
14013;SDS011;49110;52.584;13.408;2023-06-24T05:27:25;8.87;;;7.80;;
14013;SDS011;49110;52.584;13.408;2023-06-24T05:28:25;9.53;;;8.53;;
14013;SDS011;49110;52.584;13.408;2023-06-24T05:29:26;10.67;;;9.57;;
14013;SDS011;49110;52.584;13.408;2023-06-24T05:30:26;10.20;;;9.00;;
14013;SDS011;49110;52.584;13.408;2023-06-24T05:31:27;9.87;;;8.73;;
14013;SDS011;49110;52.584;13.408;2023-06-24T05:32:27;9.87;;;8.57;;
14013;SDS011;49110;52.584;13.408;2023-06-24T05:33:28;12.33;;;8.10;;
14013;SDS011;49110;52.584;13.408;2023-06-24T05:34:29;10.17;;;7.97;;
14013;SDS011;49110;52.584;13.408;2023-06-24T05:35:30;8.53;;;7.60;;
14013;SDS011;49110;52.584;13.408;2023-06-24T05:36:31;10.80;;;8.10;;
14013;SDS011;49110;52.584;13.408;2023-06-24T05:37:31;8.53;;;7.67;;
14013;SDS011;49110;52.584;13.408;2023-06-24T05:38:32;10.53;;;8.10;;
14013;SDS011;49110;52.584;13.408;2023-06-24T05:39:32;15.73;;;8.00;;
14013;SDS011;49110;52.584;13.408;2023-06-24T05:40:33;12.57;;;8.37;;
14013;SDS011;49110;52.584;13.408;2023-06-24T05:41:33;11.33;;;8.60;;
14013;SDS011;49110;52.584;13.408;2023-06-24T05:42:35;9.47;;;8.33;;
14013;SDS011;49110;52.584;13.408;2023-06-24T05:43:35;11.73;;;7.70;;
14013;SDS011;49110;52.584;13.408;2023-06-24T05:44:36;11.77;;;8.20;;
14013;SDS011;49110;52.584;13.408;2023-06-24T05:45:37;10.17;;;7.97;;
14013;SDS011;49110;52.584;13.408;2023-06-24T05:46:37;10.60;;;8.73;;
14013;SDS011;49110;52.584;13.408;2023-06-24T05:47:38;11.90;;;8.50;;
14013;SDS011;49110;52.584;13.408;2023-06-24T05:48:38;9.23;;;8.23;;
14013;SDS011;49110;52.584;13.408;2023-06-24T05:49:39;8.53;;;7.70;;
14013;SDS011;49110;52.584;13.408;2023-06-24T05:50:39;9.10;;;8.17;;
14013;SDS011;49110;52.584;13.408;2023-06-24T05:51:40;11.13;;;8.73;;
14013;SDS011;49110;52.584;13.408;2023-06-24T05:52:40;11.07;;;7.80;;
14013;SDS011;49110;52.584;13.408;2023-06-24T05:53:41;9.67;;;7.70;;
14013;SDS011;49110;52.584;13.408;2023-06-24T05:54:41;10.37;;;8.87;;
14013;SDS011;49110;52.584;13.408;2023-06-24T05:55:42;10.23;;;8.07;;
14013;SDS011;49110;52.584;13.408;2023-06-24T05:56:42;8.50;;;7.50;;
14013;SDS011;49110;52.584;13.408;2023-06-24T05:57:43;8.93;;;7.40;;
14013;SDS011;49110;52.584;13.408;2023-06-24T05:58:43;9.40;;;7.80;;
14013;SDS011;49110;52.584;13.408;2023-06-24T05:59:44;8.77;;;7.83;;
14013;SDS011;49110;52.584;13.408;2023-06-24T06:00:44;12.03;;;7.60;;
14013;SDS011;49110;52.584;13.408;2023-06-24T06:01:45;10.07;;;8.47;;
14013;SDS011;49110;52.584;13.408;2023-06-24T06:02:45;11.27;;;8.20;;
14013;SDS011;49110;52.584;13.408;2023-06-24T06:03:46;7.83;;;7.03;;
14013;SDS011;49110;52.584;13.408;2023-06-24T06:04:46;8.17;;;7.23;;
14013;SDS011;49110;52.584;13.408;2023-06-24T06:05:47;9.70;;;8.00;;
14013;SDS011;49110;52.584;13.408;2023-06-24T06:06:47;12.13;;;8.03;;